createdAt,value
2019-05-22T00:00:29.153Z,12.50
2019-05-22T00:03:00.342Z,12.50
2019-05-22T00:05:32.201Z,12.50
2019-05-22T00:08:04.634Z,12.50
2019-05-22T00:10:34.526Z,12.50
2019-05-22T00:13:05.260Z,12.50
2019-05-22T00:15:38.613Z,12.40
2019-05-22T00:18:08.031Z,12.40
2019-05-22T00:20:37.430Z,12.40
2019-05-22T00:23:10.930Z,12.40
2019-05-22T00:25:40.910Z,12.40
2019-05-22T00:28:10.655Z,12.40
2019-05-22T00:30:41.312Z,12.40
2019-05-22T00:33:10.586Z,12.40
2019-05-22T00:35:39.846Z,12.40
2019-05-22T00:38:10.317Z,12.40
2019-05-22T00:40:53.376Z,12.40
2019-05-22T00:43:30.455Z,12.40
2019-05-22T00:46:01.544Z,12.40
2019-05-22T00:48:30.797Z,12.40
2019-05-22T00:51:04.161Z,12.50
2019-05-22T00:53:49.170Z,12.50
2019-05-22T00:56:31.407Z,12.50
2019-05-22T00:59:07.797Z,12.50
2019-05-22T01:01:39.818Z,12.50
2019-05-22T01:04:11.909Z,12.50
2019-05-22T01:06:42.470Z,12.50
2019-05-22T01:09:13.171Z,12.50
2019-05-22T01:11:42.621Z,12.50
2019-05-22T01:14:13.007Z,12.50
2019-05-22T01:16:42.867Z,12.50
2019-05-22T01:19:11.912Z,12.50
2019-05-22T01:21:41.716Z,12.50
2019-05-22T01:24:12.626Z,12.50
2019-05-22T01:26:43.785Z,12.50
2019-05-22T01:29:14.033Z,12.50
2019-05-22T01:31:44.659Z,12.50
2019-05-22T01:34:15.302Z,12.50
2019-05-22T01:36:46.066Z,12.40
2019-05-22T01:39:18.358Z,12.50
2019-05-22T01:41:49.995Z,12.50
2019-05-22T01:44:20.526Z,12.50
2019-05-22T01:46:51.105Z,12.50
2019-05-22T01:49:20.156Z,12.40
2019-05-22T01:51:50.474Z,12.40
2019-05-22T01:54:19.477Z,12.40
2019-05-22T01:56:48.446Z,12.40
2019-05-22T01:59:18.265Z,12.40
2019-05-22T02:01:48.406Z,12.40
2019-05-22T02:04:18.709Z,12.40
2019-05-22T02:06:48.113Z,12.40
2019-05-22T02:09:24.274Z,12.40
2019-05-22T02:12:02.864Z,12.40
2019-05-22T02:14:32.022Z,12.40
2019-05-22T02:17:01.379Z,12.40
2019-05-22T02:19:30.344Z,12.40
2019-05-22T02:21:59.759Z,12.50
2019-05-22T02:24:30.364Z,12.40
2019-05-22T02:27:00.311Z,12.40
2019-05-22T02:29:29.983Z,12.40
2019-05-22T02:31:59.028Z,12.40
2019-05-22T02:34:28.284Z,12.40
2019-05-22T02:36:57.989Z,12.50
2019-05-22T02:39:28.596Z,12.50
2019-05-22T02:42:00.352Z,12.50
2019-05-22T02:44:29.810Z,12.50
2019-05-22T02:47:16.788Z,12.40
2019-05-22T02:49:32.807Z,12.40
2019-05-22T02:52:03.070Z,12.40
2019-05-22T02:54:36.089Z,12.40
2019-05-22T02:57:05.478Z,12.40
2019-05-22T02:59:34.834Z,12.40
2019-05-22T03:02:04.819Z,12.40
2019-05-22T03:04:51.607Z,12.40
2019-05-22T03:07:22.361Z,12.40
2019-05-22T03:09:52.294Z,12.40
2019-05-22T03:12:22.354Z,12.40
2019-05-22T03:14:51.407Z,12.40
2019-05-22T03:17:30.883Z,12.40
2019-05-22T03:20:02.031Z,12.40
2019-05-22T03:22:49.466Z,12.40
2019-05-22T03:25:20.027Z,12.40
2019-05-22T03:27:50.356Z,12.40
2019-05-22T03:30:25.290Z,12.30
2019-05-22T03:32:55.496Z,12.40
2019-05-22T03:35:26.385Z,12.40
2019-05-22T03:37:57.017Z,12.40
2019-05-22T03:40:27.085Z,12.40
2019-05-22T03:42:56.151Z,12.40
2019-05-22T03:45:25.431Z,12.40
2019-05-22T03:47:55.157Z,12.40
2019-05-22T03:50:24.199Z,12.40
2019-05-22T03:52:55.587Z,12.40
2019-05-22T03:55:24.974Z,12.40
2019-05-22T03:57:54.339Z,12.40
2019-05-22T04:00:23.892Z,12.40
2019-05-22T04:02:54.569Z,12.40
2019-05-22T04:05:24.572Z,12.40
2019-05-22T04:07:54.640Z,12.40
2019-05-22T04:10:24.023Z,12.50
2019-05-22T04:12:53.758Z,12.50
2019-05-22T04:15:23.096Z,12.50
2019-05-22T04:17:52.119Z,12.50
2019-05-22T04:20:21.157Z,12.50
2019-05-22T04:22:51.957Z,12.50
2019-05-22T04:25:21.006Z,12.50
2019-05-22T04:27:49.819Z,12.50
2019-05-22T04:30:19.425Z,12.50
2019-05-22T04:32:48.679Z,12.50
2019-05-22T04:35:19.517Z,12.50
2019-05-22T04:37:51.453Z,12.50
2019-05-22T04:40:27.538Z,12.60
2019-05-22T04:42:57.125Z,12.50
2019-05-22T04:45:26.869Z,12.60
2019-05-22T04:47:58.602Z,12.60
2019-05-22T04:50:29.149Z,12.50
2019-05-22T04:52:58.899Z,12.60
2019-05-22T04:55:30.138Z,12.60
2019-05-22T04:58:01.555Z,12.60
2019-05-22T05:00:31.438Z,12.60
2019-05-22T05:03:01.092Z,12.60
2019-05-22T05:05:31.860Z,12.60
2019-05-22T05:08:00.890Z,12.60
2019-05-22T05:10:30.434Z,12.60
2019-05-22T05:12:59.419Z,12.60
2019-05-22T05:15:28.375Z,12.60
2019-05-22T05:17:57.408Z,12.60
2019-05-22T05:20:26.433Z,12.60
2019-05-22T05:22:55.291Z,12.60
2019-05-22T05:25:24.856Z,12.60
2019-05-22T05:27:53.745Z,12.60
2019-05-22T05:30:23.054Z,12.60
2019-05-22T05:32:52.221Z,12.70
2019-05-22T05:35:21.363Z,12.70
2019-05-22T05:37:50.432Z,12.60
2019-05-22T05:40:35.021Z,12.70
2019-05-22T05:43:04.683Z,12.70
2019-05-22T05:45:33.754Z,12.60
2019-05-22T05:48:05.690Z,12.70
2019-05-22T05:50:39.946Z,12.70
2019-05-22T05:53:08.458Z,12.70
2019-05-22T05:56:13.726Z,12.70
2019-05-22T05:58:42.896Z,12.70
2019-05-22T06:01:16.624Z,12.70
2019-05-22T06:03:46.381Z,12.70
2019-05-22T06:06:28.694Z,12.70
2019-05-22T06:09:00.610Z,12.70
2019-05-22T06:11:36.046Z,12.80
2019-05-22T06:14:07.190Z,12.80
2019-05-22T06:16:58.798Z,12.80
2019-05-22T06:19:28.500Z,12.80
2019-05-22T06:21:58.459Z,13.10
2019-05-22T06:24:39.155Z,13.10
2019-05-22T06:27:14.195Z,13.10
2019-05-22T06:30:01.327Z,13.10
2019-05-22T06:32:57.911Z,13.10
2019-05-22T06:35:31.983Z,13.10
2019-05-22T06:38:06.899Z,13.10
2019-05-22T06:40:36.196Z,13.20
2019-05-22T06:43:24.996Z,13.20
2019-05-22T06:45:54.389Z,13.30
2019-05-22T06:48:23.285Z,13.30
2019-05-22T06:50:52.383Z,13.30
2019-05-22T06:53:21.313Z,13.40
2019-05-22T06:55:50.459Z,13.40
2019-05-22T06:58:19.753Z,13.40
2019-05-22T07:00:49.097Z,13.40
2019-05-22T07:03:18.817Z,13.40
2019-05-22T07:05:47.972Z,13.50
2019-05-22T07:08:16.936Z,13.50
2019-05-22T07:10:46.525Z,13.50
2019-05-22T07:13:16.904Z,13.50
2019-05-22T07:15:47.549Z,13.60
2019-05-22T07:18:17.963Z,13.60
2019-05-22T07:20:47.607Z,13.70
2019-05-22T07:23:20.810Z,13.70
2019-05-22T07:25:49.726Z,13.80
2019-05-22T07:28:20.299Z,13.90
2019-05-22T07:30:49.506Z,14.00
2019-05-22T07:33:18.664Z,14.10
2019-05-22T07:36:07.926Z,14.10
2019-05-22T07:38:20.075Z,14.20
2019-05-22T07:40:51.042Z,14.20
2019-05-22T07:43:21.162Z,14.20
2019-05-22T07:45:51.841Z,14.20
2019-05-22T07:48:22.365Z,14.20
2019-05-22T07:50:52.460Z,14.40
2019-05-22T07:53:21.428Z,14.40
2019-05-22T07:55:51.079Z,14.50
2019-05-22T07:58:19.957Z,14.60
2019-05-22T08:00:51.167Z,14.60
2019-05-22T08:03:21.494Z,14.60
2019-05-22T08:05:54.879Z,14.70
2019-05-22T08:08:24.448Z,14.70
2019-05-22T08:10:53.786Z,14.80
2019-05-22T08:13:23.404Z,14.80
2019-05-22T08:15:52.321Z,14.80
2019-05-22T08:18:21.898Z,14.80
2019-05-22T08:20:50.840Z,14.80
2019-05-22T08:23:19.841Z,14.80
2019-05-22T08:25:48.996Z,14.80
2019-05-22T08:28:18.480Z,14.80
2019-05-22T08:30:47.315Z,14.80
2019-05-22T08:33:17.202Z,14.80
2019-05-22T08:35:46.244Z,14.80
2019-05-22T08:38:15.142Z,14.70
2019-05-22T08:40:44.462Z,14.70
2019-05-22T08:43:19.353Z,14.70
2019-05-22T08:45:48.380Z,14.80
2019-05-22T08:48:17.608Z,14.80
2019-05-22T08:50:46.576Z,14.80
2019-05-22T08:53:16.681Z,14.80
2019-05-22T08:55:45.767Z,14.80
2019-05-22T08:58:15.820Z,14.90
2019-05-22T09:00:45.230Z,14.90
2019-05-22T09:03:14.726Z,15.00
2019-05-22T09:05:43.613Z,15.10
2019-05-22T09:08:12.607Z,15.20
2019-05-22T09:10:41.989Z,15.30
2019-05-22T09:13:10.997Z,15.40
2019-05-22T09:15:40.905Z,15.50
2019-05-22T09:18:12.502Z,15.50
2019-05-22T09:20:49.324Z,15.60
2019-05-22T09:23:14.226Z,15.70
2019-05-22T09:25:43.542Z,15.80
2019-05-22T09:28:12.690Z,15.90
2019-05-22T09:30:41.700Z,16.00
2019-05-22T09:33:11.945Z,16.10
2019-05-22T09:35:41.153Z,16.20
2019-05-22T09:38:10.194Z,16.20
2019-05-22T09:40:39.478Z,16.30
2019-05-22T09:43:08.432Z,16.40
2019-05-22T09:45:56.864Z,16.50
2019-05-22T09:48:26.159Z,16.60
2019-05-22T09:50:55.225Z,16.60
2019-05-22T09:53:24.523Z,16.70
2019-05-22T09:55:54.723Z,16.80
2019-05-22T09:58:23.607Z,16.90
2019-05-22T10:00:52.505Z,17.00
2019-05-22T10:03:22.154Z,17.10
2019-05-22T10:05:51.493Z,17.10
2019-05-22T10:08:21.006Z,17.10
2019-05-22T10:10:49.848Z,17.20
2019-05-22T10:13:18.988Z,17.20
2019-05-22T10:15:47.957Z,17.40
2019-05-22T10:18:16.889Z,17.50
2019-05-22T10:20:45.976Z,17.60
2019-05-22T10:23:16.467Z,17.80
2019-05-22T10:25:45.537Z,17.90
2019-05-22T10:28:14.580Z,18.10
2019-05-22T10:30:43.524Z,18.20
2019-05-22T10:33:12.664Z,18.30
2019-05-22T10:35:41.914Z,18.30
2019-05-22T10:38:10.959Z,18.30
2019-05-22T10:40:39.908Z,18.30
2019-05-22T10:43:08.965Z,18.40
2019-05-22T10:45:38.545Z,18.40
2019-05-22T10:48:07.478Z,18.40
2019-05-22T10:50:36.431Z,18.30
2019-05-22T10:53:05.615Z,18.40
2019-05-22T10:55:35.822Z,18.30
2019-05-22T10:58:06.100Z,18.40
2019-05-22T11:00:35.285Z,18.40
2019-05-22T11:03:04.478Z,18.50
2019-05-22T11:05:33.770Z,18.60
2019-05-22T11:08:03.181Z,18.70
2019-05-22T11:10:32.348Z,18.80
2019-05-22T11:13:01.239Z,18.90
2019-05-22T11:15:30.922Z,19.10
2019-05-22T11:17:59.843Z,19.20
2019-05-22T11:20:33.660Z,19.40
2019-05-22T11:23:03.129Z,19.40
2019-05-22T11:25:32.413Z,19.50
2019-05-22T11:28:01.503Z,19.50
2019-05-22T11:30:30.556Z,19.60
2019-05-22T11:32:59.798Z,19.60
2019-05-22T11:35:29.136Z,19.50
2019-05-22T11:37:58.013Z,18.90
2019-05-22T11:40:29.666Z,18.90
2019-05-22T11:42:59.187Z,19.00
2019-05-22T11:45:30.008Z,19.00
2019-05-22T11:47:59.327Z,18.90
2019-05-22T11:50:30.053Z,19.00
2019-05-22T11:52:59.176Z,19.00
2019-05-22T11:55:44.387Z,19.20
2019-05-22T11:57:59.298Z,19.30
2019-05-22T12:00:28.480Z,19.30
2019-05-22T12:02:57.464Z,19.30
2019-05-22T12:05:26.448Z,19.20
2019-05-22T12:07:55.895Z,19.10
2019-05-22T12:10:25.455Z,19.30
2019-05-22T12:12:55.241Z,19.40
2019-05-22T12:15:25.246Z,19.40
2019-05-22T12:17:54.943Z,19.40
2019-05-22T12:20:24.741Z,19.20
2019-05-22T12:22:53.882Z,19.00
2019-05-22T12:25:23.284Z,18.80
2019-05-22T12:27:52.256Z,18.80
2019-05-22T12:30:21.447Z,18.70
2019-05-22T12:32:50.509Z,18.70
2019-05-22T12:35:19.467Z,18.80
2019-05-22T12:37:48.618Z,19.00
2019-05-22T12:40:19.220Z,19.10
2019-05-22T12:42:48.648Z,19.30
2019-05-22T12:45:19.747Z,19.50
2019-05-22T12:47:48.793Z,19.50
2019-05-22T12:50:19.170Z,19.60
2019-05-22T12:52:49.172Z,19.60
2019-05-22T12:55:19.771Z,19.40
2019-05-22T12:57:49.130Z,19.30
2019-05-22T13:00:21.072Z,19.10
2019-05-22T13:02:50.373Z,19.00
2019-05-22T13:05:19.348Z,19.10
2019-05-22T13:07:48.654Z,19.00
2019-05-22T13:10:17.724Z,19.00
2019-05-22T13:12:46.923Z,18.90
2019-05-22T13:15:15.989Z,18.80
2019-05-22T13:17:44.984Z,18.90
2019-05-22T13:20:15.565Z,18.80
2019-05-22T13:22:45.385Z,18.70
2019-05-22T13:25:15.991Z,18.70
2019-05-22T13:27:45.275Z,18.70
2019-05-22T13:30:15.879Z,18.60
2019-05-22T13:32:44.912Z,18.50
2019-05-22T13:35:13.940Z,18.40
2019-05-22T13:37:43.443Z,18.30
2019-05-22T13:40:26.699Z,18.20
2019-05-22T13:42:43.674Z,18.20
2019-05-22T13:45:27.770Z,18.20
2019-05-22T13:47:45.010Z,18.20
2019-05-22T13:50:15.339Z,18.20
2019-05-22T13:52:45.012Z,18.10
2019-05-22T13:55:14.917Z,18.10
2019-05-22T13:57:44.067Z,18.00
2019-05-22T14:00:15.532Z,17.90
2019-05-22T14:02:44.495Z,18.00
2019-05-22T14:05:14.074Z,17.80
2019-05-22T14:07:43.181Z,17.80
2019-05-22T14:10:12.244Z,17.80
2019-05-22T14:12:41.460Z,17.80
2019-05-22T14:15:10.439Z,17.80
2019-05-22T14:17:39.296Z,17.80
2019-05-22T14:20:08.249Z,17.80
2019-05-22T14:22:37.263Z,17.70
2019-05-22T14:25:07.514Z,17.70
2019-05-22T14:27:41.779Z,17.70
2019-05-22T14:30:12.036Z,17.70
2019-05-22T14:32:41.168Z,17.70
2019-05-22T14:35:10.230Z,17.60
2019-05-22T14:37:39.274Z,17.70
2019-05-22T14:40:08.360Z,17.50
2019-05-22T14:42:37.894Z,17.50
2019-05-22T14:45:08.066Z,17.40
2019-05-22T14:47:37.301Z,17.30
2019-05-22T14:50:07.969Z,17.20
2019-05-22T14:52:37.351Z,17.20
2019-05-22T14:55:07.003Z,17.20
2019-05-22T14:57:36.097Z,17.20
2019-05-22T15:00:09.899Z,17.10
2019-05-22T15:02:39.210Z,17.10
2019-05-22T15:05:08.322Z,17.10
2019-05-22T15:07:37.292Z,17.10
2019-05-22T15:10:08.006Z,17.00
2019-05-22T15:12:37.840Z,17.00
2019-05-22T15:15:06.697Z,16.90
2019-05-22T15:17:35.561Z,16.90
2019-05-22T15:20:07.179Z,16.80
2019-05-22T15:22:36.260Z,16.80
2019-05-22T15:25:06.798Z,16.70
2019-05-22T15:27:36.232Z,16.70
2019-05-22T15:30:08.513Z,16.70
2019-05-22T15:32:37.576Z,16.70
2019-05-22T15:35:06.818Z,16.60
2019-05-22T15:37:36.261Z,16.60
2019-05-22T15:40:07.169Z,16.50
2019-05-22T15:42:41.710Z,16.50
2019-05-22T15:45:27.452Z,16.50
2019-05-22T15:47:58.230Z,16.50
2019-05-22T15:50:28.953Z,16.40
2019-05-22T15:53:06.139Z,16.40
2019-05-22T15:55:35.410Z,16.40
2019-05-22T15:58:06.608Z,16.40
2019-05-22T16:00:37.110Z,16.30
2019-05-22T16:03:17.052Z,16.40
2019-05-22T16:05:46.208Z,16.30
2019-05-22T16:08:15.894Z,16.30
2019-05-22T16:10:47.573Z,16.30
2019-05-22T16:13:18.833Z,16.20
2019-05-22T16:15:48.969Z,16.20
2019-05-22T16:18:20.250Z,16.20
2019-05-22T16:20:49.771Z,16.20
2019-05-22T16:23:21.282Z,16.10
2019-05-22T16:25:49.660Z,16.10
2019-05-22T16:28:18.760Z,16.10
2019-05-22T16:30:47.926Z,16.20
2019-05-22T16:33:17.214Z,16.10
2019-05-22T16:35:46.675Z,16.10
2019-05-22T16:38:16.006Z,16.10
2019-05-22T16:40:45.271Z,16.10
2019-05-22T16:43:14.360Z,16.10
2019-05-22T16:45:43.575Z,16.10
2019-05-22T16:48:31.907Z,16.00
2019-05-22T16:51:01.477Z,16.00
2019-05-22T16:53:30.752Z,16.00
2019-05-22T16:55:59.638Z,16.00
2019-05-22T16:58:28.944Z,16.00
2019-05-22T17:00:57.932Z,16.00
2019-05-22T17:03:26.893Z,16.00
2019-05-22T17:05:56.422Z,15.90
2019-05-22T17:08:27.276Z,15.90
2019-05-22T17:10:57.802Z,15.90
2019-05-22T17:13:27.929Z,15.80
2019-05-22T17:15:56.817Z,15.80
2019-05-22T17:18:27.383Z,15.80
2019-05-22T17:20:58.217Z,15.80
2019-05-22T17:23:27.773Z,15.80
2019-05-22T17:25:57.541Z,15.80
2019-05-22T17:28:27.290Z,15.80
2019-05-22T17:30:56.246Z,15.80
2019-05-22T17:33:25.556Z,15.80
2019-05-22T17:35:54.603Z,15.80
2019-05-22T17:38:25.162Z,15.80
2019-05-22T17:40:54.788Z,15.80
2019-05-22T17:43:24.361Z,15.80
2019-05-22T17:45:53.359Z,15.80
2019-05-22T17:48:22.776Z,15.80
2019-05-22T17:50:51.984Z,15.80
2019-05-22T17:53:20.902Z,15.80
2019-05-22T17:55:50.752Z,15.80
2019-05-22T17:58:20.153Z,15.80
2019-05-22T18:00:50.714Z,15.70
2019-05-22T18:03:19.996Z,15.70
2019-05-22T18:05:49.037Z,15.70
2019-05-22T18:08:18.512Z,15.70
2019-05-22T18:10:48.612Z,15.70
2019-05-22T18:13:17.723Z,15.70
2019-05-22T18:15:46.855Z,15.70
2019-05-22T18:18:17.205Z,15.60
2019-05-22T18:20:46.187Z,15.50
2019-05-22T18:23:15.213Z,15.50
2019-05-22T18:25:45.170Z,15.50
2019-05-22T18:28:14.983Z,15.40
2019-05-22T18:30:44.346Z,15.40
2019-05-22T18:33:13.769Z,15.40
2019-05-22T18:35:42.743Z,15.50
2019-05-22T18:38:11.725Z,15.50
2019-05-22T18:40:40.635Z,15.40
2019-05-22T18:43:10.086Z,15.40
2019-05-22T18:45:39.452Z,15.40
2019-05-22T18:48:08.587Z,15.40
2019-05-22T18:50:37.929Z,15.30
2019-05-22T18:53:07.169Z,15.30
2019-05-22T18:55:35.991Z,15.30
2019-05-22T18:58:05.044Z,15.30
2019-05-22T19:00:34.687Z,15.20
2019-05-22T19:03:04.258Z,15.20
2019-05-22T19:05:33.496Z,15.20
2019-05-22T19:08:02.512Z,15.20
2019-05-22T19:10:31.949Z,15.20
2019-05-22T19:13:00.944Z,15.10
2019-05-22T19:15:30.289Z,15.10
2019-05-22T19:17:59.260Z,15.10
2019-05-22T19:20:28.503Z,15.10
2019-05-22T19:23:00.821Z,15.00
2019-05-22T19:25:29.117Z,15.20
2019-05-22T19:27:58.255Z,15.20
2019-05-22T19:30:27.181Z,15.10
2019-05-22T19:32:56.184Z,15.10
2019-05-22T19:35:25.092Z,15.00
2019-05-22T19:37:55.363Z,14.90
2019-05-22T19:40:24.719Z,14.90
2019-05-22T19:42:54.745Z,14.90
2019-05-22T19:45:23.759Z,14.80
2019-05-22T19:47:55.967Z,14.80
2019-05-22T19:50:25.432Z,14.80
2019-05-22T19:52:55.691Z,14.70
2019-05-22T19:55:26.057Z,14.70
2019-05-22T19:57:55.134Z,14.70
2019-05-22T20:00:24.751Z,14.70
2019-05-22T20:02:54.422Z,14.70
2019-05-22T20:05:24.101Z,14.60
2019-05-22T20:07:53.435Z,14.60
2019-05-22T20:10:23.199Z,14.60
2019-05-22T20:12:52.491Z,14.60
2019-05-22T20:15:21.684Z,14.50
2019-05-22T20:17:50.833Z,14.50
2019-05-22T20:20:22.366Z,14.50
2019-05-22T20:22:51.546Z,14.40
2019-05-22T20:25:22.113Z,14.40
2019-05-22T20:27:53.991Z,14.40
2019-05-22T20:30:24.516Z,14.40
2019-05-22T20:32:53.601Z,14.30
2019-05-22T20:35:23.122Z,14.30
2019-05-22T20:37:55.134Z,14.30
2019-05-22T20:40:25.247Z,14.20
2019-05-22T20:42:54.527Z,14.20
2019-05-22T20:45:25.125Z,14.20
2019-05-22T20:48:06.342Z,14.10
2019-05-22T20:50:36.310Z,14.00
2019-05-22T20:53:06.195Z,14.00
2019-05-22T20:55:36.061Z,13.90
2019-05-22T20:58:06.182Z,13.90
2019-05-22T21:00:35.196Z,13.90
2019-05-22T21:03:04.059Z,13.80
2019-05-22T21:05:33.385Z,13.80
2019-05-22T21:08:13.461Z,13.80
2019-05-22T21:10:44.047Z,13.80
2019-05-22T21:13:15.139Z,13.80
2019-05-22T21:15:45.466Z,13.80
2019-05-22T21:18:14.915Z,13.80
2019-05-22T21:20:54.369Z,13.70
2019-05-22T21:23:15.717Z,13.70
2019-05-22T21:25:44.775Z,13.70
2019-05-22T21:28:13.820Z,13.70
2019-05-22T21:30:43.725Z,13.70
2019-05-22T21:33:12.830Z,13.70
2019-05-22T21:35:41.830Z,13.70
2019-05-22T21:38:11.524Z,13.60
2019-05-22T21:40:40.468Z,13.60
2019-05-22T21:43:10.399Z,13.60
2019-05-22T21:45:39.537Z,13.50
2019-05-22T21:48:08.547Z,13.40
2019-05-22T21:50:38.013Z,13.40
2019-05-22T21:53:09.991Z,13.40
2019-05-22T21:55:40.260Z,13.40
2019-05-22T21:58:09.971Z,13.30
2019-05-22T22:00:43.101Z,13.30
2019-05-22T22:03:19.640Z,13.20
2019-05-22T22:05:49.491Z,13.20
2019-05-22T22:08:18.559Z,13.20
2019-05-22T22:10:47.907Z,13.10
2019-05-22T22:13:17.393Z,13.10
2019-05-22T22:15:46.501Z,13.10
2019-05-22T22:18:15.436Z,13.10
2019-05-22T22:20:44.345Z,13.00
2019-05-22T22:23:14.008Z,13.00
2019-05-22T22:25:42.958Z,12.90
2019-05-22T22:28:16.284Z,12.90
2019-05-22T22:30:59.052Z,12.90
2019-05-22T22:33:29.290Z,12.90
2019-05-22T22:35:58.599Z,12.80
2019-05-22T22:38:28.900Z,12.80
2019-05-22T22:40:57.861Z,12.80
2019-05-22T22:43:30.492Z,12.80
2019-05-22T22:46:16.264Z,12.80
2019-05-22T22:48:47.317Z,12.80
2019-05-22T22:51:17.837Z,12.80
2019-05-22T22:53:47.610Z,12.80
2019-05-22T22:56:17.534Z,12.80
2019-05-22T22:58:47.891Z,12.80
2019-05-22T23:01:26.891Z,12.80
2019-05-22T23:03:57.025Z,12.80
2019-05-22T23:06:26.644Z,12.90
2019-05-22T23:08:55.733Z,12.90
2019-05-22T23:11:26.730Z,12.90
2019-05-22T23:13:56.342Z,12.90
2019-05-22T23:16:25.652Z,12.90
2019-05-22T23:19:00.923Z,13.00
2019-05-22T23:21:30.594Z,13.00
2019-05-22T23:23:58.577Z,13.00
2019-05-22T23:26:27.594Z,12.90
2019-05-22T23:28:56.557Z,12.90
2019-05-22T23:31:26.484Z,12.90
2019-05-22T23:33:55.285Z,12.90
2019-05-22T23:36:24.179Z,12.80
2019-05-22T23:38:54.201Z,12.80
2019-05-22T23:41:24.044Z,12.70
2019-05-22T23:43:53.748Z,12.70
2019-05-22T23:46:23.888Z,12.70
2019-05-22T23:48:52.664Z,12.70
2019-05-22T23:51:21.619Z,12.70
2019-05-22T23:53:50.600Z,12.70
2019-05-22T23:56:20.388Z,12.70
2019-05-22T23:58:53.005Z,12.60
